sensor_id;sensor_type;location;lat;lon;timestamp;temperature;humidity
10390;DHT22;5241;47.830;12.972;2022-08-21T00:02:25;15.90;99.90
10390;DHT22;5241;47.830;12.972;2022-08-21T00:04:52;15.90;99.90
10390;DHT22;5241;47.830;12.972;2022-08-21T00:07:18;15.90;99.90
10390;DHT22;5241;47.830;12.972;2022-08-21T00:09:45;16.00;99.90
10390;DHT22;5241;47.830;12.972;2022-08-21T00:12:10;16.00;99.90
10390;DHT22;5241;47.830;12.972;2022-08-21T00:14:36;16.10;99.90
10390;DHT22;5241;47.830;12.972;2022-08-21T00:17:04;16.10;99.90
10390;DHT22;5241;47.830;12.972;2022-08-21T00:19:30;16.10;99.90
10390;DHT22;5241;47.830;12.972;2022-08-21T00:21:56;16.10;99.90
10390;DHT22;5241;47.830;12.972;2022-08-21T00:24:23;16.10;99.90
10390;DHT22;5241;47.830;12.972;2022-08-21T00:26:49;16.10;99.90
10390;DHT22;5241;47.830;12.972;2022-08-21T00:29:15;16.10;99.90
10390;DHT22;5241;47.830;12.972;2022-08-21T00:31:42;16.10;99.90
10390;DHT22;5241;47.830;12.972;2022-08-21T00:34:09;16.10;99.90
10390;DHT22;5241;47.830;12.972;2022-08-21T00:36:35;16.10;99.90
10390;DHT22;5241;47.830;12.972;2022-08-21T00:39:02;16.20;99.90
10390;DHT22;5241;47.830;12.972;2022-08-21T00:41:28;16.20;99.90
10390;DHT22;5241;47.830;12.972;2022-08-21T00:43:55;16.20;99.90
10390;DHT22;5241;47.830;12.972;2022-08-21T00:46:20;16.20;99.90
10390;DHT22;5241;47.830;12.972;2022-08-21T00:48:46;16.20;99.90
10390;DHT22;5241;47.830;12.972;2022-08-21T00:51:17;16.20;99.90
10390;DHT22;5241;47.830;12.972;2022-08-21T00:53:47;16.30;99.90
10390;DHT22;5241;47.830;12.972;2022-08-21T00:56:14;16.20;99.90
10390;DHT22;5241;47.830;12.972;2022-08-21T00:58:41;16.30;99.90
10390;DHT22;5241;47.830;12.972;2022-08-21T01:01:08;16.20;99.90
10390;DHT22;5241;47.830;12.972;2022-08-21T01:03:35;16.20;99.90
10390;DHT22;5241;47.830;12.972;2022-08-21T01:06:01;16.20;99.90
10390;DHT22;5241;47.830;12.972;2022-08-21T01:08:27;16.20;99.90
10390;DHT22;5241;47.830;12.972;2022-08-21T01:10:55;16.20;99.90
10390;DHT22;5241;47.830;12.972;2022-08-21T01:13:23;16.20;99.90
10390;DHT22;5241;47.830;12.972;2022-08-21T01:15:52;16.20;99.90
10390;DHT22;5241;47.830;12.972;2022-08-21T01:18:19;16.20;99.90
10390;DHT22;5241;47.830;12.972;2022-08-21T01:21:05;16.20;99.90
10390;DHT22;5241;47.830;12.972;2022-08-21T01:23:31;16.20;99.90
10390;DHT22;5241;47.830;12.972;2022-08-21T01:25:57;16.20;99.90
10390;DHT22;5241;47.830;12.972;2022-08-21T01:28:24;16.10;99.90
10390;DHT22;5241;47.830;12.972;2022-08-21T01:30:51;16.10;99.90
10390;DHT22;5241;47.830;12.972;2022-08-21T01:33:20;16.10;99.90
10390;DHT22;5241;47.830;12.972;2022-08-21T01:35:47;16.10;99.90
10390;DHT22;5241;47.830;12.972;2022-08-21T01:38:12;16.10;99.90
10390;DHT22;5241;47.830;12.972;2022-08-21T01:40:38;16.10;99.90
10390;DHT22;5241;47.830;12.972;2022-08-21T01:43:04;16.10;99.90
10390;DHT22;5241;47.830;12.972;2022-08-21T01:45:29;16.10;99.90
10390;DHT22;5241;47.830;12.972;2022-08-21T01:47:55;16.10;99.90
10390;DHT22;5241;47.830;12.972;2022-08-21T01:50:21;16.10;99.90
10390;DHT22;5241;47.830;12.972;2022-08-21T01:52:48;16.10;99.90
10390;DHT22;5241;47.830;12.972;2022-08-21T01:55:15;16.10;99.90
10390;DHT22;5241;47.830;12.972;2022-08-21T01:57:42;16.10;99.90
10390;DHT22;5241;47.830;12.972;2022-08-21T02:00:11;16.10;99.90
10390;DHT22;5241;47.830;12.972;2022-08-21T02:02:37;16.10;99.90
10390;DHT22;5241;47.830;12.972;2022-08-21T02:05:04;16.10;99.90
10390;DHT22;5241;47.830;12.972;2022-08-21T02:07:37;16.10;99.90
10390;DHT22;5241;47.830;12.972;2022-08-21T02:10:03;16.10;99.90
10390;DHT22;5241;47.830;12.972;2022-08-21T02:12:29;16.10;99.90
10390;DHT22;5241;47.830;12.972;2022-08-21T02:14:55;16.10;99.90
10390;DHT22;5241;47.830;12.972;2022-08-21T02:17:20;16.10;99.90
10390;DHT22;5241;47.830;12.972;2022-08-21T02:19:47;16.10;99.90
10390;DHT22;5241;47.830;12.972;2022-08-21T02:22:13;16.10;99.90
10390;DHT22;5241;47.830;12.972;2022-08-21T02:24:39;16.10;99.90
10390;DHT22;5241;47.830;12.972;2022-08-21T02:27:04;16.10;99.90
10390;DHT22;5241;47.830;12.972;2022-08-21T02:29:30;16.20;99.90
10390;DHT22;5241;47.830;12.972;2022-08-21T02:31:56;16.20;99.90
10390;DHT22;5241;47.830;12.972;2022-08-21T02:34:21;16.20;99.90
10390;DHT22;5241;47.830;12.972;2022-08-21T02:36:47;16.20;99.90
10390;DHT22;5241;47.830;12.972;2022-08-21T02:39:13;16.20;99.90
10390;DHT22;5241;47.830;12.972;2022-08-21T02:41:39;16.20;99.90
10390;DHT22;5241;47.830;12.972;2022-08-21T02:44:04;16.20;99.90
10390;DHT22;5241;47.830;12.972;2022-08-21T02:46:30;16.20;99.90
10390;DHT22;5241;47.830;12.972;2022-08-21T02:48:55;16.20;99.90
10390;DHT22;5241;47.830;12.972;2022-08-21T02:51:21;16.20;99.90
10390;DHT22;5241;47.830;12.972;2022-08-21T02:53:48;16.20;99.90
10390;DHT22;5241;47.830;12.972;2022-08-21T02:56:19;16.20;99.90
10390;DHT22;5241;47.830;12.972;2022-08-21T02:58:51;16.20;99.90
10390;DHT22;5241;47.830;12.972;2022-08-21T03:01:17;16.20;99.90
10390;DHT22;5241;47.830;12.972;2022-08-21T03:03:45;16.20;99.90
10390;DHT22;5241;47.830;12.972;2022-08-21T03:06:13;16.30;99.90
10390;DHT22;5241;47.830;12.972;2022-08-21T03:08:40;16.20;99.90
10390;DHT22;5241;47.830;12.972;2022-08-21T03:11:06;16.20;99.90
10390;DHT22;5241;47.830;12.972;2022-08-21T03:13:32;16.20;99.90
10390;DHT22;5241;47.830;12.972;2022-08-21T03:15:58;16.20;99.90
10390;DHT22;5241;47.830;12.972;2022-08-21T03:18:24;16.10;99.90
10390;DHT22;5241;47.830;12.972;2022-08-21T03:20:50;16.20;99.90
10390;DHT22;5241;47.830;12.972;2022-08-21T03:23:17;16.20;99.90
10390;DHT22;5241;47.830;12.972;2022-08-21T03:25:43;16.20;99.90
10390;DHT22;5241;47.830;12.972;2022-08-21T03:28:14;16.20;99.90
10390;DHT22;5241;47.830;12.972;2022-08-21T03:30:44;16.20;99.90
10390;DHT22;5241;47.830;12.972;2022-08-21T03:33:10;16.20;99.90
10390;DHT22;5241;47.830;12.972;2022-08-21T03:35:36;16.20;99.90
10390;DHT22;5241;47.830;12.972;2022-08-21T03:38:02;16.30;99.90
10390;DHT22;5241;47.830;12.972;2022-08-21T03:40:27;16.30;99.90
10390;DHT22;5241;47.830;12.972;2022-08-21T03:42:53;16.30;99.90
10390;DHT22;5241;47.830;12.972;2022-08-21T03:45:19;16.30;99.90
10390;DHT22;5241;47.830;12.972;2022-08-21T03:47:53;16.20;99.90
10390;DHT22;5241;47.830;12.972;2022-08-21T03:50:19;16.30;99.90
10390;DHT22;5241;47.830;12.972;2022-08-21T03:52:45;16.30;99.90
10390;DHT22;5241;47.830;12.972;2022-08-21T03:55:10;16.30;99.90
10390;DHT22;5241;47.830;12.972;2022-08-21T03:57:36;16.30;99.90
10390;DHT22;5241;47.830;12.972;2022-08-21T04:00:02;16.30;99.90
10390;DHT22;5241;47.830;12.972;2022-08-21T04:02:28;16.20;99.90
10390;DHT22;5241;47.830;12.972;2022-08-21T04:04:53;16.20;99.90
10390;DHT22;5241;47.830;12.972;2022-08-21T04:07:19;16.20;99.90
10390;DHT22;5241;47.830;12.972;2022-08-21T04:09:44;16.20;99.90
10390;DHT22;5241;47.830;12.972;2022-08-21T04:12:10;16.30;99.90
10390;DHT22;5241;47.830;12.972;2022-08-21T04:14:36;16.20;99.90
10390;DHT22;5241;47.830;12.972;2022-08-21T04:17:01;16.20;99.90
10390;DHT22;5241;47.830;12.972;2022-08-21T04:19:27;16.20;99.90
10390;DHT22;5241;47.830;12.972;2022-08-21T04:21:52;16.20;99.90
10390;DHT22;5241;47.830;12.972;2022-08-21T04:24:18;16.20;99.90
10390;DHT22;5241;47.830;12.972;2022-08-21T04:26:44;16.20;99.90
10390;DHT22;5241;47.830;12.972;2022-08-21T04:29:10;16.20;99.90
10390;DHT22;5241;47.830;12.972;2022-08-21T04:31:36;16.20;99.90
10390;DHT22;5241;47.830;12.972;2022-08-21T04:34:04;16.20;99.90
10390;DHT22;5241;47.830;12.972;2022-08-21T04:36:31;16.20;99.90
10390;DHT22;5241;47.830;12.972;2022-08-21T04:38:57;16.20;99.90
10390;DHT22;5241;47.830;12.972;2022-08-21T04:41:23;16.20;99.90
10390;DHT22;5241;47.830;12.972;2022-08-21T04:43:48;16.20;99.90
10390;DHT22;5241;47.830;12.972;2022-08-21T04:46:15;16.30;99.90
10390;DHT22;5241;47.830;12.972;2022-08-21T04:48:40;16.30;99.90
10390;DHT22;5241;47.830;12.972;2022-08-21T04:51:09;16.30;99.90
10390;DHT22;5241;47.830;12.972;2022-08-21T04:53:45;16.30;99.90
10390;DHT22;5241;47.830;12.972;2022-08-21T04:56:25;16.30;99.90
10390;DHT22;5241;47.830;12.972;2022-08-21T04:58:53;16.30;99.90
10390;DHT22;5241;47.830;12.972;2022-08-21T05:01:22;16.30;99.90
10390;DHT22;5241;47.830;12.972;2022-08-21T05:03:50;16.30;99.90
10390;DHT22;5241;47.830;12.972;2022-08-21T05:06:17;16.40;99.90
10390;DHT22;5241;47.830;12.972;2022-08-21T05:08:45;16.40;99.90
10390;DHT22;5241;47.830;12.972;2022-08-21T05:11:12;16.40;99.90
10390;DHT22;5241;47.830;12.972;2022-08-21T05:13:38;16.50;99.90
10390;DHT22;5241;47.830;12.972;2022-08-21T05:16:06;16.50;99.90
10390;DHT22;5241;47.830;12.972;2022-08-21T05:18:32;16.60;99.90
10390;DHT22;5241;47.830;12.972;2022-08-21T05:20:57;16.50;99.90
10390;DHT22;5241;47.830;12.972;2022-08-21T05:23:23;16.60;99.90
10390;DHT22;5241;47.830;12.972;2022-08-21T05:25:50;16.60;99.90
10390;DHT22;5241;47.830;12.972;2022-08-21T05:28:16;16.70;99.90
10390;DHT22;5241;47.830;12.972;2022-08-21T05:30:43;16.70;99.90
10390;DHT22;5241;47.830;12.972;2022-08-21T05:33:09;16.70;99.90
10390;DHT22;5241;47.830;12.972;2022-08-21T05:35:35;16.80;99.90
10390;DHT22;5241;47.830;12.972;2022-08-21T05:38:02;16.80;99.90
10390;DHT22;5241;47.830;12.972;2022-08-21T05:40:28;16.80;99.90
10390;DHT22;5241;47.830;12.972;2022-08-21T05:42:54;16.80;99.90
10390;DHT22;5241;47.830;12.972;2022-08-21T05:45:26;16.80;99.90
10390;DHT22;5241;47.830;12.972;2022-08-21T05:47:52;16.80;99.90
10390;DHT22;5241;47.830;12.972;2022-08-21T05:50:18;16.80;99.90
10390;DHT22;5241;47.830;12.972;2022-08-21T05:52:43;16.90;99.90
10390;DHT22;5241;47.830;12.972;2022-08-21T05:55:09;16.80;99.90
10390;DHT22;5241;47.830;12.972;2022-08-21T05:57:34;16.80;99.90
10390;DHT22;5241;47.830;12.972;2022-08-21T06:00:00;16.80;99.90
10390;DHT22;5241;47.830;12.972;2022-08-21T06:02:25;16.80;99.90
10390;DHT22;5241;47.830;12.972;2022-08-21T06:04:51;17.00;99.90
10390;DHT22;5241;47.830;12.972;2022-08-21T06:07:17;17.10;99.90
10390;DHT22;5241;47.830;12.972;2022-08-21T06:09:42;17.10;99.90
10390;DHT22;5241;47.830;12.972;2022-08-21T06:12:11;17.10;99.90
10390;DHT22;5241;47.830;12.972;2022-08-21T06:14:39;17.00;99.90
10390;DHT22;5241;47.830;12.972;2022-08-21T06:17:06;17.10;99.90
10390;DHT22;5241;47.830;12.972;2022-08-21T06:19:32;17.10;99.90
10390;DHT22;5241;47.830;12.972;2022-08-21T06:21:58;17.20;99.90
10390;DHT22;5241;47.830;12.972;2022-08-21T06:24:25;17.30;99.90
10390;DHT22;5241;47.830;12.972;2022-08-21T06:26:50;17.30;99.90
10390;DHT22;5241;47.830;12.972;2022-08-21T06:29:16;17.30;99.90
10390;DHT22;5241;47.830;12.972;2022-08-21T06:31:43;17.20;99.90
10390;DHT22;5241;47.830;12.972;2022-08-21T06:34:10;17.20;99.90
10390;DHT22;5241;47.830;12.972;2022-08-21T06:36:36;17.10;99.90
10390;DHT22;5241;47.830;12.972;2022-08-21T06:39:01;17.10;99.90
10390;DHT22;5241;47.830;12.972;2022-08-21T06:41:27;17.10;99.90
10390;DHT22;5241;47.830;12.972;2022-08-21T06:43:54;17.00;99.90
10390;DHT22;5241;47.830;12.972;2022-08-21T06:46:20;17.10;99.90
10390;DHT22;5241;47.830;12.972;2022-08-21T06:48:46;17.10;99.90
10390;DHT22;5241;47.830;12.972;2022-08-21T06:51:12;17.30;99.90
10390;DHT22;5241;47.830;12.972;2022-08-21T06:53:37;17.40;99.90
10390;DHT22;5241;47.830;12.972;2022-08-21T06:56:03;17.80;99.90
10390;DHT22;5241;47.830;12.972;2022-08-21T06:58:29;18.10;99.90
10390;DHT22;5241;47.830;12.972;2022-08-21T07:00:55;18.60;99.90
10390;DHT22;5241;47.830;12.972;2022-08-21T07:03:36;18.90;99.90
10390;DHT22;5241;47.830;12.972;2022-08-21T07:06:06;19.20;99.90
10390;DHT22;5241;47.830;12.972;2022-08-21T07:08:33;19.50;99.90
10390;DHT22;5241;47.830;12.972;2022-08-21T07:11:00;19.60;99.90
10390;DHT22;5241;47.830;12.972;2022-08-21T07:13:27;20.10;99.90
10390;DHT22;5241;47.830;12.972;2022-08-21T07:15:53;20.20;99.90
10390;DHT22;5241;47.830;12.972;2022-08-21T07:18:18;20.30;99.90
10390;DHT22;5241;47.830;12.972;2022-08-21T07:20:44;20.50;99.90
10390;DHT22;5241;47.830;12.972;2022-08-21T07:23:16;20.60;99.90
10390;DHT22;5241;47.830;12.972;2022-08-21T07:25:45;20.40;99.90
10390;DHT22;5241;47.830;12.972;2022-08-21T07:28:11;20.40;99.90
10390;DHT22;5241;47.830;12.972;2022-08-21T07:30:36;20.20;99.90
10390;DHT22;5241;47.830;12.972;2022-08-21T07:33:02;20.30;99.90
10390;DHT22;5241;47.830;12.972;2022-08-21T07:35:27;20.60;99.90
10390;DHT22;5241;47.830;12.972;2022-08-21T07:37:53;21.00;99.90
10390;DHT22;5241;47.830;12.972;2022-08-21T07:40:19;21.00;99.90
10390;DHT22;5241;47.830;12.972;2022-08-21T07:42:47;21.10;99.90
10390;DHT22;5241;47.830;12.972;2022-08-21T07:45:15;21.30;99.90
10390;DHT22;5241;47.830;12.972;2022-08-21T07:47:41;22.10;99.90
10390;DHT22;5241;47.830;12.972;2022-08-21T07:50:07;22.30;99.90
10390;DHT22;5241;47.830;12.972;2022-08-21T07:52:33;22.50;99.90
10390;DHT22;5241;47.830;12.972;2022-08-21T07:54:59;22.30;99.90
10390;DHT22;5241;47.830;12.972;2022-08-21T07:57:25;22.00;99.90
10390;DHT22;5241;47.830;12.972;2022-08-21T07:59:50;22.20;99.90
10390;DHT22;5241;47.830;12.972;2022-08-21T08:02:24;22.00;99.90
10390;DHT22;5241;47.830;12.972;2022-08-21T08:04:50;22.10;99.90
10390;DHT22;5241;47.830;12.972;2022-08-21T08:07:16;22.00;99.90
10390;DHT22;5241;47.830;12.972;2022-08-21T08:09:41;21.50;99.90
10390;DHT22;5241;47.830;12.972;2022-08-21T08:12:07;21.70;99.90
10390;DHT22;5241;47.830;12.972;2022-08-21T08:14:32;22.10;99.90
10390;DHT22;5241;47.830;12.972;2022-08-21T08:16:59;22.40;99.90
10390;DHT22;5241;47.830;12.972;2022-08-21T08:19:24;23.10;99.90
10390;DHT22;5241;47.830;12.972;2022-08-21T08:21:50;24.00;99.90
10390;DHT22;5241;47.830;12.972;2022-08-21T08:24:15;24.30;99.90
10390;DHT22;5241;47.830;12.972;2022-08-21T08:26:41;24.60;99.90
10390;DHT22;5241;47.830;12.972;2022-08-21T08:29:06;23.90;99.90
10390;DHT22;5241;47.830;12.972;2022-08-21T08:31:32;23.50;99.90
10390;DHT22;5241;47.830;12.972;2022-08-21T08:33:59;23.00;99.90
10390;DHT22;5241;47.830;12.972;2022-08-21T08:36:33;23.90;99.90
10390;DHT22;5241;47.830;12.972;2022-08-21T08:38:59;24.90;99.90
10390;DHT22;5241;47.830;12.972;2022-08-21T08:41:26;24.90;99.90
10390;DHT22;5241;47.830;12.972;2022-08-21T08:43:53;24.30;99.90
10390;DHT22;5241;47.830;12.972;2022-08-21T08:46:44;24.50;99.90
10390;DHT22;5241;47.830;12.972;2022-08-21T08:49:23;24.50;99.90
10390;DHT22;5241;47.830;12.972;2022-08-21T08:52:20;24.60;99.90
10390;DHT22;5241;47.830;12.972;2022-08-21T08:54:55;24.20;99.90
10390;DHT22;5241;47.830;12.972;2022-08-21T08:57:24;24.20;99.90
10390;DHT22;5241;47.830;12.972;2022-08-21T08:59:52;24.10;99.90
10390;DHT22;5241;47.830;12.972;2022-08-21T09:02:18;24.80;99.90
10390;DHT22;5241;47.830;12.972;2022-08-21T09:04:49;25.40;99.90
10390;DHT22;5241;47.830;12.972;2022-08-21T09:10:23;25.20;99.90
10390;DHT22;5241;47.830;12.972;2022-08-21T09:13:27;23.90;99.90
10390;DHT22;5241;47.830;12.972;2022-08-21T09:16:08;23.70;99.90
10390;DHT22;5241;47.830;12.972;2022-08-21T09:19:05;23.40;99.90
10390;DHT22;5241;47.830;12.972;2022-08-21T09:21:53;23.30;99.90
10390;DHT22;5241;47.830;12.972;2022-08-21T09:26:47;23.40;99.90
10390;DHT22;5241;47.830;12.972;2022-08-21T09:29:20;23.50;99.90
10390;DHT22;5241;47.830;12.972;2022-08-21T09:31:48;23.50;99.90
10390;DHT22;5241;47.830;12.972;2022-08-21T09:34:30;22.30;99.90
10390;DHT22;5241;47.830;12.972;2022-08-21T09:36:57;22.90;99.90
10390;DHT22;5241;47.830;12.972;2022-08-21T09:39:28;23.60;99.90
10390;DHT22;5241;47.830;12.972;2022-08-21T09:42:04;24.20;99.90
10390;DHT22;5241;47.830;12.972;2022-08-21T09:44:33;24.50;99.90
10390;DHT22;5241;47.830;12.972;2022-08-21T09:46:59;24.20;99.90
10390;DHT22;5241;47.830;12.972;2022-08-21T09:49:33;23.90;99.90
10390;DHT22;5241;47.830;12.972;2022-08-21T09:52:00;22.90;99.90
10390;DHT22;5241;47.830;12.972;2022-08-21T09:54:31;22.40;99.90
10390;DHT22;5241;47.830;12.972;2022-08-21T09:59:54;23.20;99.90
10390;DHT22;5241;47.830;12.972;2022-08-21T10:02:27;24.30;99.90
10390;DHT22;5241;47.830;12.972;2022-08-21T10:05:14;24.90;99.90
10390;DHT22;5241;47.830;12.972;2022-08-21T10:07:40;24.90;99.90
10390;DHT22;5241;47.830;12.972;2022-08-21T10:10:25;23.60;99.90
10390;DHT22;5241;47.830;12.972;2022-08-21T10:13:19;22.70;99.90
10390;DHT22;5241;47.830;12.972;2022-08-21T10:16:12;21.60;99.90
10390;DHT22;5241;47.830;12.972;2022-08-21T10:19:10;21.80;99.90
10390;DHT22;5241;47.830;12.972;2022-08-21T10:29:42;24.00;99.90
10390;DHT22;5241;47.830;12.972;2022-08-21T10:32:27;23.10;99.90
10390;DHT22;5241;47.830;12.972;2022-08-21T10:35:36;22.70;99.90
10390;DHT22;5241;47.830;12.972;2022-08-21T10:38:34;23.70;99.90
10390;DHT22;5241;47.830;12.972;2022-08-21T10:41:18;23.20;99.90
10390;DHT22;5241;47.830;12.972;2022-08-21T10:46:45;23.30;99.90
10390;DHT22;5241;47.830;12.972;2022-08-21T10:54:53;23.10;99.90
10390;DHT22;5241;47.830;12.972;2022-08-21T10:57:33;22.60;99.90
10390;DHT22;5241;47.830;12.972;2022-08-21T11:00:06;22.60;99.90
10390;DHT22;5241;47.830;12.972;2022-08-21T11:02:49;23.50;99.90
10390;DHT22;5241;47.830;12.972;2022-08-21T11:05:42;24.10;99.90
10390;DHT22;5241;47.830;12.972;2022-08-21T11:11:05;23.30;99.90
10390;DHT22;5241;47.830;12.972;2022-08-21T11:13:41;22.40;99.90
10390;DHT22;5241;47.830;12.972;2022-08-21T11:16:39;21.90;99.90
10390;DHT22;5241;47.830;12.972;2022-08-21T11:27:06;23.60;99.90
10390;DHT22;5241;47.830;12.972;2022-08-21T11:29:38;24.80;99.90
10390;DHT22;5241;47.830;12.972;2022-08-21T11:32:37;25.50;99.90
10390;DHT22;5241;47.830;12.972;2022-08-21T11:43:33;25.90;99.90
10390;DHT22;5241;47.830;12.972;2022-08-21T11:48:59;23.80;99.90
10390;DHT22;5241;47.830;12.972;2022-08-21T11:51:38;22.80;99.90
10390;DHT22;5241;47.830;12.972;2022-08-21T11:54:13;22.70;99.90
10390;DHT22;5241;47.830;12.972;2022-08-21T11:57:02;23.80;99.90
10390;DHT22;5241;47.830;12.972;2022-08-21T11:59:44;25.30;99.90
10390;DHT22;5241;47.830;12.972;2022-08-21T12:02:14;26.80;99.90
10390;DHT22;5241;47.830;12.972;2022-08-21T12:04:52;27.70;99.90
10390;DHT22;5241;47.830;12.972;2022-08-21T12:10:06;27.80;99.90
10390;DHT22;5241;47.830;12.972;2022-08-21T12:12:35;28.80;98.60
10390;DHT22;5241;47.830;12.972;2022-08-21T12:15:27;28.40;95.20
10390;DHT22;5241;47.830;12.972;2022-08-21T12:18:21;27.20;95.00
10390;DHT22;5241;47.830;12.972;2022-08-21T12:26:11;24.00;99.90
10390;DHT22;5241;47.830;12.972;2022-08-21T12:28:39;23.90;99.90
10390;DHT22;5241;47.830;12.972;2022-08-21T12:31:26;23.40;99.90
10390;DHT22;5241;47.830;12.972;2022-08-21T12:33:58;22.70;99.90
10390;DHT22;5241;47.830;12.972;2022-08-21T12:36:33;22.00;99.90
10390;DHT22;5241;47.830;12.972;2022-08-21T12:39:03;21.50;99.90
10390;DHT22;5241;47.830;12.972;2022-08-21T12:41:56;21.30;99.90
10390;DHT22;5241;47.830;12.972;2022-08-21T12:44:50;21.20;99.90
10390;DHT22;5241;47.830;12.972;2022-08-21T12:47:34;21.00;99.90
10390;DHT22;5241;47.830;12.972;2022-08-21T12:50:09;20.90;99.90
10390;DHT22;5241;47.830;12.972;2022-08-21T12:52:40;20.70;99.90
10390;DHT22;5241;47.830;12.972;2022-08-21T12:55:13;20.70;99.90
10390;DHT22;5241;47.830;12.972;2022-08-21T12:57:40;20.90;99.90
10390;DHT22;5241;47.830;12.972;2022-08-21T13:00:10;21.20;99.90
10390;DHT22;5241;47.830;12.972;2022-08-21T13:02:46;21.60;99.90
10390;DHT22;5241;47.830;12.972;2022-08-21T13:05:15;22.30;99.90
10390;DHT22;5241;47.830;12.972;2022-08-21T13:07:46;22.60;99.90
10390;DHT22;5241;47.830;12.972;2022-08-21T13:10:27;23.40;99.90
10390;DHT22;5241;47.830;12.972;2022-08-21T13:12:56;24.60;99.90
10390;DHT22;5241;47.830;12.972;2022-08-21T13:15:26;26.00;99.90
10390;DHT22;5241;47.830;12.972;2022-08-21T13:17:53;27.30;98.30
10390;DHT22;5241;47.830;12.972;2022-08-21T13:20:26;27.70;99.40
10390;DHT22;5241;47.830;12.972;2022-08-21T13:22:52;27.70;95.80
10390;DHT22;5241;47.830;12.972;2022-08-21T13:25:20;27.20;96.00
10390;DHT22;5241;47.830;12.972;2022-08-21T13:30:23;27.60;92.60
10390;DHT22;5241;47.830;12.972;2022-08-21T13:32:54;28.60;90.30
10390;DHT22;5241;47.830;12.972;2022-08-21T13:35:28;29.10;89.60
10390;DHT22;5241;47.830;12.972;2022-08-21T13:37:56;28.70;92.50
10390;DHT22;5241;47.830;12.972;2022-08-21T13:40:27;28.40;91.20
10390;DHT22;5241;47.830;12.972;2022-08-21T13:42:54;28.70;88.30
10390;DHT22;5241;47.830;12.972;2022-08-21T13:45:30;29.70;86.80
10390;DHT22;5241;47.830;12.972;2022-08-21T13:47:57;30.20;83.70
10390;DHT22;5241;47.830;12.972;2022-08-21T13:50:25;30.30;81.80
10390;DHT22;5241;47.830;12.972;2022-08-21T13:53:00;30.90;74.00
10390;DHT22;5241;47.830;12.972;2022-08-21T13:55:36;30.50;75.90
10390;DHT22;5241;47.830;12.972;2022-08-21T13:58:03;29.40;83.70
10390;DHT22;5241;47.830;12.972;2022-08-21T14:00:31;28.40;85.70
10390;DHT22;5241;47.830;12.972;2022-08-21T14:03:08;28.40;82.00
10390;DHT22;5241;47.830;12.972;2022-08-21T14:05:36;26.90;85.20
10390;DHT22;5241;47.830;12.972;2022-08-21T14:08:06;26.40;87.90
10390;DHT22;5241;47.830;12.972;2022-08-21T14:10:36;26.00;92.90
10390;DHT22;5241;47.830;12.972;2022-08-21T14:13:06;25.30;93.90
10390;DHT22;5241;47.830;12.972;2022-08-21T14:15:34;24.60;91.90
10390;DHT22;5241;47.830;12.972;2022-08-21T14:18:16;25.00;94.30
10390;DHT22;5241;47.830;12.972;2022-08-21T14:20:43;25.60;89.70
10390;DHT22;5241;47.830;12.972;2022-08-21T14:23:09;26.50;88.60
10390;DHT22;5241;47.830;12.972;2022-08-21T14:25:41;27.30;88.90
10390;DHT22;5241;47.830;12.972;2022-08-21T14:28:27;26.30;87.70
10390;DHT22;5241;47.830;12.972;2022-08-21T14:30:54;24.90;90.50
10390;DHT22;5241;47.830;12.972;2022-08-21T14:33:26;24.00;92.60
10390;DHT22;5241;47.830;12.972;2022-08-21T14:35:52;23.50;95.00
10390;DHT22;5241;47.830;12.972;2022-08-21T14:38:20;23.30;94.60
10390;DHT22;5241;47.830;12.972;2022-08-21T14:40:48;23.20;95.20
10390;DHT22;5241;47.830;12.972;2022-08-21T14:43:15;23.10;95.00
10390;DHT22;5241;47.830;12.972;2022-08-21T14:45:40;22.90;95.40
10390;DHT22;5241;47.830;12.972;2022-08-21T14:48:06;22.90;97.90
10390;DHT22;5241;47.830;12.972;2022-08-21T14:50:32;22.70;98.60
10390;DHT22;5241;47.830;12.972;2022-08-21T14:52:58;22.50;99.90
10390;DHT22;5241;47.830;12.972;2022-08-21T14:55:24;22.50;98.70
10390;DHT22;5241;47.830;12.972;2022-08-21T14:57:52;22.90;97.30
10390;DHT22;5241;47.830;12.972;2022-08-21T15:00:20;23.30;99.40
10390;DHT22;5241;47.830;12.972;2022-08-21T15:02:47;23.10;99.10
10390;DHT22;5241;47.830;12.972;2022-08-21T15:05:13;23.40;98.10
10390;DHT22;5241;47.830;12.972;2022-08-21T15:07:39;24.30;95.80
10390;DHT22;5241;47.830;12.972;2022-08-21T15:10:05;25.00;93.10
10390;DHT22;5241;47.830;12.972;2022-08-21T15:12:31;26.10;89.10
10390;DHT22;5241;47.830;12.972;2022-08-21T15:14:57;26.60;88.30
10390;DHT22;5241;47.830;12.972;2022-08-21T15:17:23;27.10;87.30
10390;DHT22;5241;47.830;12.972;2022-08-21T15:19:49;26.80;81.20
10390;DHT22;5241;47.830;12.972;2022-08-21T15:22:15;27.30;79.20
10390;DHT22;5241;47.830;12.972;2022-08-21T15:24:41;28.00;78.70
10390;DHT22;5241;47.830;12.972;2022-08-21T15:27:08;28.10;73.40
10390;DHT22;5241;47.830;12.972;2022-08-21T15:29:34;28.20;77.20
10390;DHT22;5241;47.830;12.972;2022-08-21T15:32:20;28.20;76.90
10390;DHT22;5241;47.830;12.972;2022-08-21T15:34:48;28.10;80.20
10390;DHT22;5241;47.830;12.972;2022-08-21T15:37:13;28.30;75.70
10390;DHT22;5241;47.830;12.972;2022-08-21T15:39:39;28.20;76.70
10390;DHT22;5241;47.830;12.972;2022-08-21T15:42:05;27.90;79.90
10390;DHT22;5241;47.830;12.972;2022-08-21T15:44:30;28.10;78.40
10390;DHT22;5241;47.830;12.972;2022-08-21T15:46:58;28.40;72.60
10390;DHT22;5241;47.830;12.972;2022-08-21T15:49:24;27.50;77.90
10390;DHT22;5241;47.830;12.972;2022-08-21T15:51:49;26.10;78.70
10390;DHT22;5241;47.830;12.972;2022-08-21T15:54:15;25.00;82.20
10390;DHT22;5241;47.830;12.972;2022-08-21T15:56:43;24.30;89.60
10390;DHT22;5241;47.830;12.972;2022-08-21T15:59:19;24.10;88.30
10390;DHT22;5241;47.830;12.972;2022-08-21T16:01:48;23.80;90.70
10390;DHT22;5241;47.830;12.972;2022-08-21T16:04:24;23.80;91.10
10390;DHT22;5241;47.830;12.972;2022-08-21T16:06:50;23.70;91.00
10390;DHT22;5241;47.830;12.972;2022-08-21T16:09:16;23.90;91.80
10390;DHT22;5241;47.830;12.972;2022-08-21T16:11:43;23.90;90.10
10390;DHT22;5241;47.830;12.972;2022-08-21T16:14:11;24.10;91.20
10390;DHT22;5241;47.830;12.972;2022-08-21T16:16:37;24.00;91.90
10390;DHT22;5241;47.830;12.972;2022-08-21T16:19:03;24.00;92.10
10390;DHT22;5241;47.830;12.972;2022-08-21T16:21:31;24.00;94.20
10390;DHT22;5241;47.830;12.972;2022-08-21T16:23:57;23.80;92.90
10390;DHT22;5241;47.830;12.972;2022-08-21T16:26:23;23.70;94.40
10390;DHT22;5241;47.830;12.972;2022-08-21T16:28:50;23.60;96.10
10390;DHT22;5241;47.830;12.972;2022-08-21T16:31:17;23.30;97.90
10390;DHT22;5241;47.830;12.972;2022-08-21T16:33:48;23.30;97.50
10390;DHT22;5241;47.830;12.972;2022-08-21T16:36:14;23.40;95.10
10390;DHT22;5241;47.830;12.972;2022-08-21T16:38:40;23.50;96.20
10390;DHT22;5241;47.830;12.972;2022-08-21T16:41:12;23.30;98.10
10390;DHT22;5241;47.830;12.972;2022-08-21T16:43:40;23.00;98.50